Weather at Ladowisko Natolin

Public forecast

Using degrees Celsius for public forecast. Weather courtesy of forecast.io.

Closest aviation weather report (METAR) to Ladowisko Natolin

Closest report is Katowice Wojciech Korfanty International Airport, 34.7 nm (64.3 km) SSE.

2024/05/25 05:00 (retrieved 38 minutes ago)

EPKT 250500Z 03001KT CAVOK 14/13 Q1020

Closest aviation forecast (TAF) to Ladowisko Natolin

Forecast is more than 6 hours old.

Closest forecast is Sliač Airport, 143.6 nm (265.9 km) S.

2024/05/24 18:33 (retrieved 11 hours ago)

TAF LZSL 241630Z 2418/2506 VRB02KT 9999 FEW050 SCT100 PROB40 TEMPO 2502/2506 0400 FG BKN002